createdAt,value
2023-01-01T00:00:27.998Z,16.70
2023-01-01T00:02:54.722Z,16.70
2023-01-01T00:05:21.458Z,16.70
2023-01-01T00:07:48.202Z,16.70
2023-01-01T00:10:30.313Z,16.70
2023-01-01T00:13:00.187Z,16.70
2023-01-01T00:15:27.454Z,16.70
2023-01-01T00:17:54.912Z,16.70
2023-01-01T00:20:22.398Z,16.70
2023-01-01T00:22:56.852Z,16.80
2023-01-01T00:25:24.541Z,16.80
2023-01-01T00:27:51.739Z,16.70
2023-01-01T00:30:18.659Z,16.70
2023-01-01T00:32:55.644Z,16.70
2023-01-01T00:35:29.026Z,16.60
2023-01-01T00:37:55.903Z,16.60
2023-01-01T00:40:23.313Z,16.60
2023-01-01T00:42:50.359Z,16.60
2023-01-01T00:45:21.443Z,16.60
2023-01-01T00:47:49.476Z,16.60
2023-01-01T00:50:16.346Z,16.60
2023-01-01T00:52:43.337Z,16.60
2023-01-01T00:55:10.619Z,16.60
2023-01-01T00:57:37.412Z,16.60
2023-01-01T01:00:05.882Z,16.60
2023-01-01T01:02:32.868Z,16.60
2023-01-01T01:04:59.688Z,16.50
2023-01-01T01:07:28.727Z,16.60
2023-01-01T01:09:55.589Z,16.60
2023-01-01T01:12:22.302Z,16.60
2023-01-01T01:14:49.008Z,16.60
2023-01-01T01:17:15.726Z,16.60
2023-01-01T01:19:42.500Z,16.50
2023-01-01T01:22:09.249Z,16.50
2023-01-01T01:24:35.986Z,16.50
2023-01-01T01:27:02.752Z,16.50
2023-01-01T01:29:29.504Z,16.60
2023-01-01T01:31:59.408Z,16.60
2023-01-01T01:34:29.180Z,16.60
2023-01-01T01:36:59.198Z,16.60
2023-01-01T01:39:25.979Z,16.60
2023-01-01T01:41:52.773Z,16.50
2023-01-01T01:44:50.319Z,16.50
2023-01-01T01:47:42.494Z,16.50
2023-01-01T01:50:27.965Z,16.40
2023-01-01T01:53:09.310Z,16.40
2023-01-01T01:55:40.761Z,16.30
2023-01-01T01:58:10.532Z,16.30
2023-01-01T02:00:37.414Z,16.30
2023-01-01T02:03:10.219Z,16.20
2023-01-01T02:05:39.016Z,16.20
2023-01-01T02:08:06.974Z,16.20
2023-01-01T02:10:34.311Z,16.20
2023-01-01T02:13:01.421Z,16.10
2023-01-01T02:15:32.099Z,16.10
2023-01-01T02:18:07.385Z,16.10
2023-01-01T02:21:08.208Z,16.00
2023-01-01T02:23:42.666Z,16.00
2023-01-01T02:26:21.128Z,16.00
2023-01-01T02:28:54.401Z,15.90
2023-01-01T02:31:31.971Z,15.90
2023-01-01T02:34:04.222Z,15.90
2023-01-01T02:36:34.666Z,15.90
2023-01-01T02:39:05.026Z,15.80
2023-01-01T02:41:36.193Z,15.80
2023-01-01T02:46:34.520Z,15.80
2023-01-01T02:49:07.948Z,15.70
2023-01-01T02:51:52.188Z,15.70
2023-01-01T02:54:18.886Z,15.70
2023-01-01T02:56:59.437Z,15.70
2023-01-01T02:59:48.123Z,15.70
2023-01-01T03:02:45.196Z,15.60
2023-01-01T03:05:33.887Z,15.60
2023-01-01T03:08:14.676Z,15.60
2023-01-01T03:10:45.488Z,15.60
2023-01-01T03:13:23.797Z,15.60
2023-01-01T03:16:08.526Z,15.60
2023-01-01T03:19:12.201Z,15.50
2023-01-01T03:21:46.315Z,15.50
2023-01-01T03:24:20.116Z,15.50
2023-01-01T03:26:50.843Z,15.50
2023-01-01T03:29:18.610Z,15.50
2023-01-01T03:31:47.847Z,15.40
2023-01-01T03:34:22.298Z,15.40
2023-01-01T03:36:53.064Z,15.50
2023-01-01T03:39:25.434Z,15.50
2023-01-01T03:42:05.801Z,15.40
2023-01-01T03:44:49.629Z,15.40
2023-01-01T03:47:16.720Z,15.40
2023-01-01T03:49:44.085Z,15.40
2023-01-01T03:52:32.241Z,15.40
2023-01-01T03:55:04.766Z,15.40
2023-01-01T03:57:40.319Z,15.40
2023-01-01T04:00:17.188Z,15.40
2023-01-01T04:02:47.210Z,15.40
2023-01-01T04:05:15.315Z,15.30
2023-01-01T04:10:17.750Z,15.30
2023-01-01T04:12:56.676Z,15.30
2023-01-01T04:15:29.046Z,15.30
2023-01-01T04:17:55.779Z,15.30
2023-01-01T04:20:22.984Z,15.30
2023-01-01T04:22:49.996Z,15.30
2023-01-01T04:25:17.802Z,15.30
2023-01-01T04:27:44.551Z,15.40
2023-01-01T04:30:13.627Z,15.40
2023-01-01T04:32:41.045Z,15.40
2023-01-01T04:35:09.956Z,15.40
2023-01-01T04:37:37.089Z,15.40
2023-01-01T04:40:04.866Z,15.40
2023-01-01T04:42:31.820Z,15.50
2023-01-01T04:44:58.548Z,15.40
2023-01-01T04:47:26.981Z,15.40
2023-01-01T04:49:54.223Z,15.40
2023-01-01T04:52:21.546Z,15.40
2023-01-01T04:54:48.393Z,15.40
2023-01-01T04:57:15.191Z,15.40
2023-01-01T04:59:42.196Z,15.40
2023-01-01T05:02:09.109Z,15.30
2023-01-01T05:04:35.865Z,15.40
2023-01-01T05:07:02.553Z,15.30
2023-01-01T05:09:29.292Z,15.40
2023-01-01T05:11:56.892Z,15.30
2023-01-01T05:14:23.550Z,15.40
2023-01-01T05:16:50.443Z,15.40
2023-01-01T05:19:17.247Z,15.30
2023-01-01T05:21:45.804Z,15.30
2023-01-01T05:24:13.217Z,15.30
2023-01-01T05:26:43.533Z,15.20
2023-01-01T05:29:16.127Z,15.20
2023-01-01T05:31:43.582Z,15.20
2023-01-01T05:34:10.359Z,15.20
2023-01-01T05:36:38.920Z,15.10
2023-01-01T05:39:07.645Z,15.20
2023-01-01T05:41:36.496Z,15.10
2023-01-01T05:44:06.021Z,15.10
2023-01-01T05:46:33.349Z,15.10
2023-01-01T05:49:00.344Z,15.10
2023-01-01T05:51:29.100Z,15.10
2023-01-01T05:53:56.877Z,15.10
2023-01-01T05:56:24.335Z,15.10
2023-01-01T05:58:51.078Z,15.00
2023-01-01T06:01:20.656Z,14.90
2023-01-01T06:03:48.945Z,14.90
2023-01-01T06:06:18.268Z,14.90
2023-01-01T06:08:53.434Z,14.90
2023-01-01T06:11:20.628Z,14.90
2023-01-01T06:13:47.745Z,14.90
2023-01-01T06:16:14.962Z,14.90
2023-01-01T06:18:41.691Z,14.90
2023-01-01T06:21:13.743Z,14.90
2023-01-01T06:23:41.076Z,14.90
2023-01-01T06:26:09.231Z,14.80
2023-01-01T06:28:36.510Z,14.90
2023-01-01T06:31:05.689Z,14.90
2023-01-01T06:33:32.897Z,14.90
2023-01-01T06:36:01.735Z,15.00
2023-01-01T06:38:30.565Z,15.00
2023-01-01T06:41:06.383Z,15.00
2023-01-01T06:43:34.682Z,15.00
2023-01-01T06:46:06.192Z,15.00
2023-01-01T06:48:34.830Z,14.90
2023-01-01T06:51:11.660Z,15.00
2023-01-01T06:53:38.974Z,15.00
2023-01-01T06:56:06.242Z,15.00
2023-01-01T06:58:33.683Z,15.00
2023-01-01T07:01:09.479Z,15.00
2023-01-01T07:03:37.087Z,14.90
2023-01-01T07:06:04.498Z,14.90
2023-01-01T07:08:31.198Z,14.90
2023-01-01T07:10:58.061Z,14.90
2023-01-01T07:13:29.312Z,14.90
2023-01-01T07:15:56.680Z,14.90
2023-01-01T07:18:24.848Z,14.90
2023-01-01T07:20:53.765Z,14.90
2023-01-01T07:23:20.464Z,14.90
2023-01-01T07:25:49.956Z,14.90
2023-01-01T07:28:16.680Z,14.80
2023-01-01T07:30:43.467Z,14.70
2023-01-01T07:33:15.131Z,14.60
2023-01-01T07:35:42.008Z,14.50
2023-01-01T07:38:09.082Z,14.40
2023-01-01T07:40:35.816Z,14.30
2023-01-01T07:43:02.869Z,14.20
2023-01-01T07:45:29.592Z,14.10
2023-01-01T07:47:57.833Z,14.00
2023-01-01T07:50:26.806Z,14.00
2023-01-01T07:52:53.515Z,14.00
2023-01-01T07:55:20.940Z,14.00
2023-01-01T07:57:48.574Z,14.10
2023-01-01T08:00:18.383Z,14.00
2023-01-01T08:02:45.820Z,14.00
2023-01-01T08:05:12.867Z,14.10
2023-01-01T08:07:39.605Z,14.00
2023-01-01T08:10:07.690Z,14.10
2023-01-01T08:12:34.446Z,14.10
2023-01-01T08:15:01.191Z,14.10
2023-01-01T08:17:27.906Z,14.10
2023-01-01T08:19:54.652Z,14.10
2023-01-01T08:22:21.391Z,14.10
2023-01-01T08:24:48.188Z,14.20
2023-01-01T08:27:15.891Z,14.10
2023-01-01T08:29:43.821Z,14.10
2023-01-01T08:32:12.161Z,14.10
2023-01-01T08:34:40.563Z,14.10
2023-01-01T08:37:11.322Z,14.20
2023-01-01T08:39:38.058Z,14.20
2023-01-01T08:42:10.213Z,14.20
2023-01-01T08:44:38.800Z,14.20
2023-01-01T08:47:05.562Z,14.20
2023-01-01T08:49:32.673Z,14.20
2023-01-01T08:51:59.447Z,14.20
2023-01-01T08:54:26.509Z,14.20
2023-01-01T08:56:53.202Z,14.20
2023-01-01T08:59:20.038Z,14.20
2023-01-01T09:01:46.951Z,14.20
2023-01-01T09:04:15.938Z,14.20
2023-01-01T09:06:42.838Z,14.20
2023-01-01T09:09:09.588Z,14.20
2023-01-01T09:11:36.594Z,14.20
2023-01-01T09:14:03.613Z,14.20
2023-01-01T09:16:30.828Z,14.20
2023-01-01T09:18:57.499Z,14.20
2023-01-01T09:21:24.758Z,14.20
2023-01-01T09:23:51.640Z,14.20
2023-01-01T09:26:18.456Z,14.20
2023-01-01T09:28:45.236Z,14.20
2023-01-01T09:31:11.977Z,14.20
2023-01-01T09:33:39.507Z,14.30
2023-01-01T09:36:18.523Z,14.20
2023-01-01T09:38:52.584Z,14.20
2023-01-01T09:41:28.024Z,14.20
2023-01-01T09:44:03.956Z,14.30
2023-01-01T09:46:32.072Z,14.30
2023-01-01T09:49:17.842Z,14.30
2023-01-01T09:51:57.662Z,14.30
2023-01-01T09:54:33.342Z,14.30
2023-01-01T09:57:03.934Z,14.30
2023-01-01T09:59:30.785Z,14.30
2023-01-01T10:02:18.808Z,14.30
2023-01-01T10:04:54.447Z,14.30
2023-01-01T10:07:42.791Z,14.30
2023-01-01T10:10:32.829Z,14.30
2023-01-01T10:13:08.756Z,14.30
2023-01-01T10:15:40.234Z,14.30
2023-01-01T10:18:19.717Z,14.30
2023-01-01T10:20:59.495Z,14.30
2023-01-01T10:23:49.994Z,14.30
2023-01-01T10:26:20.141Z,14.30
2023-01-01T10:29:14.965Z,14.40
2023-01-01T10:31:45.297Z,14.40
2023-01-01T10:34:28.451Z,14.40
2023-01-01T10:36:58.845Z,14.50
2023-01-01T10:39:28.243Z,14.50
2023-01-01T10:41:57.213Z,14.50
2023-01-01T10:44:33.621Z,14.50
2023-01-01T10:47:28.253Z,14.50
2023-01-01T10:50:07.502Z,14.50
2023-01-01T10:52:38.790Z,14.50
2023-01-01T10:55:06.816Z,14.50
2023-01-01T10:57:38.781Z,14.50
2023-01-01T11:01:04.633Z,14.50
2023-01-01T11:04:29.104Z,14.60
2023-01-01T11:07:49.687Z,14.60
2023-01-01T11:10:26.992Z,14.70
2023-01-01T11:13:24.145Z,14.70
2023-01-01T11:16:22.195Z,14.70
2023-01-01T11:19:12.518Z,14.70
2023-01-01T11:21:59.189Z,14.60
2023-01-01T11:24:51.129Z,14.70
2023-01-01T11:27:33.268Z,14.60
2023-01-01T11:30:50.357Z,14.60
2023-01-01T11:33:42.197Z,14.70
2023-01-01T11:36:09.431Z,14.60
2023-01-01T11:38:36.205Z,14.60
2023-01-01T11:41:06.575Z,14.70
2023-01-01T11:43:45.264Z,14.70
2023-01-01T11:46:18.615Z,14.60
2023-01-01T11:48:45.573Z,14.70
2023-01-01T11:51:32.623Z,14.70
2023-01-01T11:54:16.272Z,14.70
2023-01-01T11:56:42.981Z,14.60
2023-01-01T11:59:17.579Z,14.60
2023-01-01T12:02:13.442Z,14.60
2023-01-01T12:04:59.331Z,14.60
2023-01-01T12:07:35.125Z,14.60
2023-01-01T12:10:23.319Z,14.60
2023-01-01T12:13:11.592Z,14.70
2023-01-01T12:15:54.928Z,14.70
2023-01-01T12:18:31.605Z,14.70
2023-01-01T12:21:08.592Z,14.70
2023-01-01T12:23:36.196Z,14.70
2023-01-01T12:26:08.864Z,14.70
2023-01-01T12:29:05.895Z,14.70
2023-01-01T12:31:44.566Z,14.80
2023-01-01T12:34:29.337Z,14.70
2023-01-01T12:37:02.290Z,14.70
2023-01-01T12:40:17.027Z,14.70
2023-01-01T13:09:35.417Z,14.60
2023-01-01T13:12:27.516Z,14.50
2023-01-01T13:15:14.976Z,14.50
2023-01-01T13:18:07.364Z,14.50
2023-01-01T13:21:05.092Z,14.60
2023-01-01T13:23:36.438Z,14.50
2023-01-01T13:26:21.638Z,14.50
2023-01-01T13:29:15.816Z,14.50
2023-01-01T13:31:42.717Z,14.40
2023-01-01T13:34:30.922Z,14.40
2023-01-01T13:37:17.395Z,14.40
2023-01-01T13:40:04.443Z,14.40
2023-01-01T13:42:54.147Z,14.40
2023-01-01T13:48:44.929Z,14.40
2023-01-01T13:52:08.830Z,14.40
2023-01-01T13:54:43.712Z,14.40
2023-01-01T13:57:31.790Z,14.30
2023-01-01T14:00:21.225Z,14.40
2023-01-01T14:03:00.371Z,14.30
2023-01-01T14:05:38.507Z,14.40
2023-01-01T14:08:11.536Z,14.30
2023-01-01T14:10:39.939Z,14.30
2023-01-01T14:13:06.626Z,14.30
2023-01-01T14:15:33.287Z,14.30
2023-01-01T14:18:15.618Z,14.30
2023-01-01T14:20:45.050Z,14.30
2023-01-01T14:23:31.820Z,14.30
2023-01-01T14:26:00.727Z,14.30
2023-01-01T14:28:30.457Z,14.30
2023-01-01T14:31:10.765Z,14.20
2023-01-01T14:33:38.854Z,14.20
2023-01-01T14:36:14.668Z,14.20
2023-01-01T14:38:46.996Z,14.20
2023-01-01T14:41:29.275Z,14.20
2023-01-01T14:44:03.736Z,14.10
2023-01-01T14:46:31.319Z,14.20
2023-01-01T14:49:01.789Z,14.20
2023-01-01T14:51:31.844Z,14.20
2023-01-01T14:56:55.900Z,14.10
2023-01-01T14:59:29.701Z,14.10
2023-01-01T15:02:02.826Z,14.10
2023-01-01T15:04:30.460Z,14.00
2023-01-01T15:06:59.889Z,14.10
2023-01-01T15:09:27.915Z,14.00
2023-01-01T15:11:56.720Z,14.00
2023-01-01T15:14:40.978Z,14.00
2023-01-01T15:17:10.468Z,14.00
2023-01-01T15:19:41.165Z,14.00
2023-01-01T15:22:22.899Z,14.00
2023-01-01T15:24:49.772Z,13.90
2023-01-01T15:27:23.294Z,13.90
2023-01-01T15:29:50.867Z,13.90
2023-01-01T15:32:28.792Z,13.90
2023-01-01T15:35:06.616Z,13.90
2023-01-01T15:37:42.324Z,13.90
2023-01-01T15:40:15.208Z,13.90
2023-01-01T15:42:48.803Z,13.90
2023-01-01T15:45:21.941Z,13.90
2023-01-01T15:47:50.311Z,13.90
2023-01-01T15:50:34.913Z,13.90
2023-01-01T15:53:33.747Z,13.90
2023-01-01T15:56:05.501Z,13.80
2023-01-01T15:58:37.796Z,13.80
2023-01-01T16:01:08.717Z,13.80
2023-01-01T16:03:40.862Z,13.80
2023-01-01T16:06:08.215Z,13.80
2023-01-01T16:08:34.903Z,13.70
2023-01-01T16:11:01.725Z,13.70
2023-01-01T16:13:28.513Z,13.60
2023-01-01T16:16:01.601Z,13.60
2023-01-01T16:18:34.621Z,13.50
2023-01-01T16:21:02.670Z,13.50
2023-01-01T16:23:29.399Z,13.50
2023-01-01T16:25:56.651Z,13.40
2023-01-01T16:28:23.831Z,13.40
2023-01-01T16:30:51.076Z,13.40
2023-01-01T16:33:20.222Z,13.40
2023-01-01T16:35:47.480Z,13.40
2023-01-01T16:38:14.439Z,13.40
2023-01-01T16:40:41.524Z,13.30
2023-01-01T16:43:16.302Z,13.20
2023-01-01T16:45:43.893Z,13.10
2023-01-01T16:48:10.697Z,13.00
2023-01-01T16:50:37.397Z,13.00
2023-01-01T16:53:04.129Z,13.00
2023-01-01T16:55:30.819Z,13.00
2023-01-01T16:58:20.977Z,12.80
2023-01-01T17:00:44.416Z,12.70
2023-01-01T17:03:11.180Z,12.70
2023-01-01T17:05:43.799Z,12.50
2023-01-01T17:08:11.179Z,12.60
2023-01-01T17:10:37.833Z,12.50
2023-01-01T17:13:04.588Z,12.40
2023-01-01T17:15:32.288Z,12.40
2023-01-01T17:17:59.353Z,12.40
2023-01-01T17:20:28.961Z,12.40
2023-01-01T17:22:55.807Z,12.30
2023-01-01T17:25:22.696Z,12.40
2023-01-01T17:27:49.426Z,12.20
2023-01-01T17:30:16.279Z,12.30
2023-01-01T17:32:43.040Z,12.30
2023-01-01T17:35:10.072Z,12.30
2023-01-01T17:37:36.811Z,12.20
2023-01-01T17:40:03.703Z,12.20
2023-01-01T17:42:30.483Z,12.20
2023-01-01T17:44:57.643Z,12.20
2023-01-01T17:47:29.211Z,12.20
2023-01-01T17:49:57.641Z,12.10
2023-01-01T17:52:24.755Z,12.20
2023-01-01T17:54:52.006Z,12.10
2023-01-01T17:57:19.339Z,12.00
2023-01-01T17:59:46.049Z,12.00
2023-01-01T18:02:14.328Z,12.10
2023-01-01T18:04:41.706Z,12.00
2023-01-01T18:07:08.674Z,12.00
2023-01-01T18:09:37.998Z,12.00
2023-01-01T18:12:08.118Z,12.00
2023-01-01T18:14:34.826Z,12.00
2023-01-01T18:17:01.689Z,11.90
2023-01-01T18:19:28.548Z,11.90
2023-01-01T18:21:59.474Z,11.90
2023-01-01T18:24:27.327Z,11.90
2023-01-01T18:26:54.297Z,11.80
2023-01-01T18:29:21.211Z,11.80
2023-01-01T18:31:48.546Z,11.80
2023-01-01T18:34:15.289Z,11.80
2023-01-01T18:36:42.079Z,11.90
2023-01-01T18:39:30.190Z,11.90
2023-01-01T18:42:15.088Z,11.80
2023-01-01T18:44:41.795Z,11.80
2023-01-01T18:47:14.436Z,11.90
2023-01-01T18:49:47.550Z,11.90
2023-01-01T18:52:21.524Z,11.80
2023-01-01T18:55:00.978Z,11.90
2023-01-01T18:57:29.750Z,12.00
2023-01-01T19:00:00.449Z,11.90
2023-01-01T19:02:44.576Z,11.90
2023-01-01T19:05:24.717Z,11.90
2023-01-01T19:08:06.476Z,11.90
2023-01-01T19:10:40.753Z,11.80
2023-01-01T19:13:16.239Z,11.80
2023-01-01T19:15:52.254Z,11.80
2023-01-01T19:18:24.565Z,11.70
2023-01-01T19:21:13.049Z,11.80
2023-01-01T19:23:42.678Z,11.90
2023-01-01T19:26:18.176Z,11.80
2023-01-01T19:28:54.464Z,11.80
2023-01-01T19:31:21.557Z,11.90
2023-01-01T19:33:48.433Z,11.90
2023-01-01T19:36:15.204Z,11.90
2023-01-01T19:38:42.119Z,11.80
2023-01-01T19:41:08.864Z,11.90
2023-01-01T19:43:36.199Z,11.80
2023-01-01T19:46:03.178Z,11.80
2023-01-01T19:48:30.018Z,11.80
2023-01-01T19:51:00.348Z,11.80
2023-01-01T19:53:30.422Z,11.80
2023-01-01T19:55:57.514Z,11.70
2023-01-01T19:58:26.274Z,11.70
2023-01-01T20:00:53.230Z,11.80
2023-01-01T20:03:52.811Z,11.80
2023-01-01T20:06:08.282Z,11.80
2023-01-01T20:08:40.573Z,11.90
2023-01-01T20:11:07.606Z,11.90
2023-01-01T20:13:34.771Z,11.90
2023-01-01T20:16:02.952Z,11.80
2023-01-01T20:18:30.293Z,11.90
2023-01-01T20:21:25.297Z,11.90
2023-01-01T20:23:53.046Z,11.90
2023-01-01T20:26:20.991Z,11.90
2023-01-01T20:29:06.411Z,11.80
2023-01-01T20:31:33.265Z,11.80
2023-01-01T20:34:00.062Z,11.80
2023-01-01T20:36:50.320Z,11.80
2023-01-01T20:39:19.816Z,11.80
2023-01-01T20:41:46.701Z,11.90
2023-01-01T20:44:13.642Z,11.80
2023-01-01T20:46:54.464Z,12.00
2023-01-01T20:49:21.969Z,11.90
2023-01-01T20:51:53.288Z,12.00
2023-01-01T20:54:21.848Z,12.00
2023-01-01T20:56:48.882Z,11.90
2023-01-01T21:02:06.030Z,12.00
2023-01-01T21:04:33.436Z,12.00
2023-01-01T21:07:00.139Z,12.00
2023-01-01T21:09:30.074Z,12.00
2023-01-01T21:11:57.156Z,12.00
2023-01-01T21:14:27.223Z,11.90
2023-01-01T21:16:58.713Z,12.00
2023-01-01T21:19:27.223Z,12.00
2023-01-01T21:21:56.540Z,12.00
2023-01-01T21:24:37.748Z,12.00
2023-01-01T21:27:28.395Z,12.00
2023-01-01T21:29:58.946Z,12.10
2023-01-01T21:32:36.136Z,12.10
2023-01-01T21:35:14.433Z,12.10
2023-01-01T21:37:47.158Z,12.10
2023-01-01T21:40:35.778Z,12.10
2023-01-01T21:43:05.987Z,12.00
2023-01-01T21:45:37.436Z,12.00
2023-01-01T21:48:28.803Z,12.00
2023-01-01T21:50:55.907Z,12.00
2023-01-01T21:53:36.408Z,12.00
2023-01-01T21:56:19.558Z,12.10
2023-01-01T21:59:06.714Z,12.20
2023-01-01T22:01:38.200Z,12.10
2023-01-01T22:04:11.553Z,12.10
2023-01-01T22:06:47.285Z,12.10
2023-01-01T22:09:16.815Z,12.10
2023-01-01T22:11:48.115Z,12.20
2023-01-01T22:14:17.971Z,12.20
2023-01-01T22:16:53.381Z,12.20
2023-01-01T22:19:24.073Z,12.20
2023-01-01T22:21:52.561Z,12.20
2023-01-01T22:24:32.467Z,12.20
2023-01-01T22:27:23.933Z,12.20
2023-01-01T22:29:50.714Z,12.20
2023-01-01T22:32:23.963Z,12.30
2023-01-01T22:34:56.920Z,12.30
2023-01-01T22:37:32.875Z,12.30
2023-01-01T22:40:00.525Z,12.40
2023-01-01T22:42:36.187Z,12.40
2023-01-01T22:45:06.617Z,12.50
2023-01-01T22:47:38.994Z,12.50
2023-01-01T22:50:12.171Z,12.50
2023-01-01T22:52:40.793Z,12.50
2023-01-01T22:55:07.893Z,12.50
2023-01-01T22:57:34.633Z,12.50
2023-01-01T23:00:03.960Z,12.60
2023-01-01T23:02:30.731Z,12.60
2023-01-01T23:04:58.715Z,12.60
2023-01-01T23:07:36.607Z,12.60
2023-01-01T23:10:07.292Z,12.70
2023-01-01T23:12:36.316Z,12.80
2023-01-01T23:15:22.021Z,12.80
2023-01-01T23:17:48.705Z,12.70
2023-01-01T23:20:15.583Z,12.80
2023-01-01T23:22:45.557Z,12.90
2023-01-01T23:25:16.803Z,12.90
2023-01-01T23:27:44.689Z,12.80
2023-01-01T23:30:12.216Z,12.80
2023-01-01T23:32:38.990Z,13.00
2023-01-01T23:35:06.720Z,13.00
2023-01-01T23:37:33.675Z,13.00
2023-01-01T23:40:00.673Z,13.00
2023-01-01T23:42:27.403Z,13.00
2023-01-01T23:44:54.104Z,13.00
2023-01-01T23:47:20.976Z,13.10
2023-01-01T23:49:47.764Z,13.10
2023-01-01T23:52:14.531Z,13.10
2023-01-01T23:54:41.467Z,13.10
2023-01-01T23:57:08.198Z,13.20
2023-01-01T23:59:34.931Z,13.10
